Time;durP1;ratioP1;P1;durP2;ratioP2;P2;SDS_P1;SDS_P2;PMS_P1;PMS_P2;Temp;Humidity;BMP_temperature;BMP_pressure;BME280_temperature;BME280_humidity;BME280_pressure;Samples;Min_cycle;Max_cycle;Signal;HPM_P1;HPM_P2
2022/06/14 00:02:28;;;;;;;5.30;2.28;;;;;;;-142.64;100.00;58178.75;5057449;28;20466;-55
2022/06/14 00:04:54;;;;;;;8.10;2.40;;;;;;;-142.64;100.00;58178.75;5072348;28;20037;-55
2022/06/14 00:07:19;;;;;;;8.35;2.70;;;;;;;-142.64;100.00;58178.75;5072701;28;20047;-57
2022/06/14 00:09:44;;;;;;;8.07;2.33;;;;;;;-142.64;100.00;58178.75;5054822;28;20124;-59
2022/06/14 00:12:12;;;;;;;6.07;2.42;;;;;;;-142.64;100.00;58178.75;5072407;28;20048;-58
2022/06/14 00:14:38;;;;;;;6.20;2.13;;;;;;;-142.64;100.00;58178.75;5054466;28;20479;-56
2022/06/14 00:17:03;;;;;;;7.70;2.75;;;;;;;-142.64;100.00;58178.75;5071116;28;20127;-56
2022/06/14 00:19:28;;;;;;;8.00;2.22;;;;;;;-142.64;100.00;58178.75;5071068;28;20041;-58
2022/06/14 00:21:56;;;;;;;6.07;2.42;;;;;;;-142.64;100.00;58178.75;5072164;28;20472;-57
2022/06/14 00:24:22;;;;;;;7.63;2.63;;;;;;;-142.64;100.00;58178.75;5072464;28;20032;-56
2022/06/14 00:26:47;;;;;;;6.10;2.50;;;;;;;-142.64;100.00;58178.75;5071218;28;20380;-56
2022/06/14 00:29:13;;;;;;;9.32;2.58;;;;;;;-142.64;100.00;58178.75;5072239;28;20064;-57
2022/06/14 00:31:38;;;;;;;7.82;3.00;;;;;;;-142.64;100.00;58178.75;5070860;28;20072;-57
2022/06/14 00:34:03;;;;;;;8.35;2.30;;;;;;;-142.64;100.00;58178.75;5072206;28;20030;-58
2022/06/14 00:36:32;;;;;;;6.57;3.03;;;;;;;-142.64;100.00;58178.75;5054061;28;20039;-57
2022/06/14 00:39:06;;;;;;;8.63;2.78;;;;;;;-142.64;100.00;58178.75;5070950;28;20105;-58
2022/06/14 00:41:45;;;;;;;9.18;2.83;;;;;;;-142.64;100.00;58178.75;5072232;28;20425;-59
2022/06/14 00:44:16;;;;;;;10.93;2.70;;;;;;;-142.64;100.00;58178.75;5070912;28;20032;-58
2022/06/14 00:47:10;;;;;;;6.60;2.35;;;;;;;-142.64;100.00;58178.75;5071869;28;20029;-56
2022/06/14 00:49:45;;;;;;;6.57;2.58;;;;;;;-142.64;100.00;58178.75;5070922;28;20024;-58
2022/06/14 00:52:18;;;;;;;6.93;2.20;;;;;;;-142.64;100.00;58178.75;5072051;28;20039;-58
2022/06/14 00:54:47;;;;;;;8.40;2.78;;;;;;;-142.64;100.00;58178.75;5070918;28;20035;-59
2022/06/14 00:57:25;;;;;;;5.88;2.33;;;;;;;-142.64;100.00;58178.75;5071942;28;20020;-60
2022/06/14 00:59:55;;;;;;;4.53;2.25;;;;;;;-142.64;100.00;58178.75;5070849;28;20081;-53
2022/06/14 01:02:25;;;;;;;7.22;3.28;;;;;;;-142.64;100.00;58178.75;5070753;28;20462;-57
2022/06/14 01:04:51;;;;;;;10.95;2.67;;;;;;;-142.64;100.00;58178.75;5070718;28;20036;-58
2022/06/14 01:07:37;;;;;;;6.45;2.92;;;;;;;-142.64;100.00;58178.75;5053934;28;20514;-58
2022/06/14 01:10:08;;;;;;;5.50;2.17;;;;;;;-142.64;100.00;58178.75;5074737;28;20099;-56
2022/06/14 01:12:36;;;;;;;7.72;2.42;;;;;;;-142.64;100.00;58178.75;5074432;28;20127;-59
2022/06/14 01:15:02;;;;;;;7.32;2.47;;;;;;;-142.64;100.00;58178.75;5074576;28;20035;-59
2022/06/14 01:17:28;;;;;;;5.43;2.03;;;;;;;-142.64;100.00;58178.75;5075906;28;20391;-59
2022/06/14 01:19:54;;;;;;;5.72;2.85;;;;;;;-142.64;100.00;58178.75;5074150;28;20025;-59
2022/06/14 01:22:19;;;;;;;6.72;2.33;;;;;;;-142.64;100.00;58178.75;5073921;28;20533;-58
2022/06/14 01:24:45;;;;;;;5.82;2.58;;;;;;;-142.64;100.00;58178.75;5075310;28;20039;-58
2022/06/14 01:27:13;;;;;;;6.40;2.10;;;;;;;-142.64;100.00;58178.75;5075533;28;20033;-58
2022/06/14 01:29:41;;;;;;;9.95;2.67;;;;;;;-142.64;100.00;58178.75;5074012;28;20033;-59
2022/06/14 01:32:09;;;;;;;6.97;2.90;;;;;;;-142.64;100.00;58178.75;5074137;28;20040;-59
2022/06/14 01:34:37;;;;;;;11.50;2.92;;;;;;;-142.64;100.00;58178.75;5073952;28;20380;-58
2022/06/14 01:37:03;;;;;;;6.50;2.78;;;;;;;-142.64;100.00;58178.75;5075412;28;20039;-58
2022/06/14 01:39:28;;;;;;;7.13;3.00;;;;;;;-142.64;100.00;58178.75;5075060;28;20028;-57
2022/06/14 01:41:57;;;;;;;6.65;2.05;;;;;;;-142.64;100.00;58178.75;5074119;28;20032;-60
2022/06/14 01:44:28;;;;;;;8.70;2.47;;;;;;;-142.64;100.00;58178.75;5075239;28;20036;-55
2022/06/14 01:47:07;;;;;;;10.73;3.22;;;;;;;-142.64;100.00;58178.75;5075001;28;20028;-59
2022/06/14 01:52:48;;;;;;;5.63;2.28;;;;;;;-142.64;100.00;58178.75;5074949;28;20043;-58
2022/06/14 01:55:38;;;;;;;8.85;2.40;;;;;;;-142.64;100.00;58178.75;5074882;28;20410;-58
2022/06/14 01:58:45;;;;;;;10.90;2.53;;;;;;;-142.64;100.00;58178.75;5073843;28;20036;-58
2022/06/14 02:01:24;;;;;;;7.90;2.60;;;;;;;-142.64;100.00;58178.75;5071637;28;20049;-57
2022/06/14 02:06:43;;;;;;;6.25;2.30;;;;;;;-142.64;100.00;58178.75;5074751;28;20044;-58
2022/06/14 02:09:32;;;;;;;5.60;2.65;;;;;;;-142.64;100.00;58178.75;5073526;28;20033;-57
2022/06/14 02:11:58;;;;;;;6.47;1.95;;;;;;;-142.64;100.00;58178.75;5074519;28;20479;-59
2022/06/14 02:14:33;;;;;;;6.32;2.08;;;;;;;-142.64;100.00;58178.75;5074510;28;20040;-58
2022/06/14 02:17:04;;;;;;;4.60;2.25;;;;;;;-142.64;100.00;58178.75;5073285;28;20480;-59
2022/06/14 02:19:35;;;;;;;8.55;2.28;;;;;;;-142.64;100.00;58178.75;5072511;28;20078;-59
2022/06/14 02:22:10;;;;;;;7.87;2.33;;;;;;;-142.64;100.00;58178.75;5073096;28;20040;-57
2022/06/14 02:24:41;;;;;;;5.70;2.63;;;;;;;-142.64;100.00;58178.75;5074279;28;20052;-59
2022/06/14 02:27:18;;;;;;;5.68;2.38;;;;;;;-142.64;100.00;58178.75;5073459;28;20032;-58
2022/06/14 02:29:48;;;;;;;5.97;2.33;;;;;;;-142.64;100.00;58178.75;5074339;28;20086;-57
2022/06/14 02:32:19;;;;;;;5.13;2.03;;;;;;;-142.64;100.00;58178.75;5073025;28;20503;-58
2022/06/14 02:34:50;;;;;;;4.88;2.22;;;;;;;-142.64;100.00;58178.75;5056481;28;20094;-57
2022/06/14 02:37:23;;;;;;;9.13;2.78;;;;;;;-142.64;100.00;58178.75;5074313;28;20033;-59
2022/06/14 02:39:54;;;;;;;7.10;2.47;;;;;;;-142.64;100.00;58178.75;5072777;28;20111;-59
2022/06/14 02:42:25;;;;;;;3.65;2.20;;;;;;;-142.64;100.00;58178.75;5073067;28;20024;-58
2022/06/14 02:45:17;;;;;;;6.30;2.53;;;;;;;-142.64;100.00;58178.75;5072720;28;20537;-57
2022/06/14 02:47:46;;;;;;;8.75;2.80;;;;;;;-142.64;100.00;58178.75;5069432;28;20086;-59
2022/06/14 02:50:53;;;;;;;6.40;2.58;;;;;;;-142.64;100.00;58178.75;5074047;28;20032;-58
2022/06/14 02:53:27;;;;;;;6.28;2.17;;;;;;;-142.64;100.00;58178.75;5070682;28;20047;-57
2022/06/14 02:56:01;;;;;;;5.68;2.65;;;;;;;-142.64;100.00;58178.75;5072378;28;20494;-60
2022/06/14 02:58:31;;;;;;;4.95;2.30;;;;;;;-142.64;100.00;58178.75;5072592;28;20028;-59
2022/06/14 03:01:28;;;;;;;5.68;2.80;;;;;;;-142.64;100.00;58178.75;5074022;28;20509;-58
2022/06/14 03:04:00;;;;;;;9.50;2.80;;;;;;;-142.64;100.00;58178.75;5068019;28;20036;-58
2022/06/14 03:06:38;;;;;;;6.32;2.40;;;;;;;-142.64;100.00;58178.75;5073449;28;20031;-60
2022/06/14 03:09:14;;;;;;;7.53;3.10;;;;;;;-142.64;100.00;58178.75;5072254;28;20036;-59
2022/06/14 03:12:03;;;;;;;6.60;2.47;;;;;;;-142.64;100.00;58178.75;5073035;28;20098;-59
2022/06/14 03:14:48;;;;;;;5.30;2.40;;;;;;;-142.64;100.00;58178.75;5073309;28;20056;-60
2022/06/14 03:17:13;;;;;;;5.07;2.38;;;;;;;-142.64;100.00;58178.75;5073622;28;20039;-59
2022/06/14 03:19:58;;;;;;;6.65;2.80;;;;;;;-142.64;100.00;58178.75;5073702;28;20111;-58
2022/06/14 03:22:51;;;;;;;7.60;2.47;;;;;;;-142.64;100.00;58178.75;5073311;28;20116;-60
2022/06/14 03:25:40;;;;;;;5.88;2.55;;;;;;;-142.64;100.00;58178.75;5064097;28;20114;-57
2022/06/14 03:28:13;;;;;;;7.50;2.97;;;;;;;-142.64;100.00;58178.75;5073297;28;20094;-59
2022/06/14 03:30:45;;;;;;;4.97;2.53;;;;;;;-142.64;100.00;58178.75;5071618;28;20032;-59
2022/06/14 03:33:23;;;;;;;7.63;2.70;;;;;;;-142.64;100.00;58178.75;5072978;28;20029;-58
2022/06/14 03:35:51;;;;;;;6.55;2.35;;;;;;;-142.64;100.00;58178.75;5071997;28;20035;-59
2022/06/14 03:38:25;;;;;;;5.20;2.85;;;;;;;-142.64;100.00;58178.75;5072945;28;20433;-58
2022/06/14 03:40:51;;;;;;;7.07;2.92;;;;;;;-142.64;100.00;58178.75;5071800;28;20467;-58
2022/06/14 03:43:17;;;;;;;5.50;2.40;;;;;;;-142.64;100.00;58178.75;5072778;28;20093;-57
2022/06/14 03:45:51;;;;;;;8.38;3.00;;;;;;;-142.64;100.00;58178.75;5072678;28;20094;-60
2022/06/14 03:48:17;;;;;;;4.97;2.85;;;;;;;-142.64;100.00;58178.75;5054684;28;20035;-59
2022/06/14 03:51:02;;;;;;;3.88;2.45;;;;;;;-142.64;100.00;58178.75;5071444;28;20033;-58
2022/06/14 03:53:34;;;;;;;6.47;2.58;;;;;;;-142.64;100.00;58178.75;5072673;28;20028;-57
2022/06/14 03:56:11;;;;;;;4.32;2.47;;;;;;;-142.64;100.00;58178.75;5072711;28;20025;-59
2022/06/14 03:58:52;;;;;;;4.90;3.15;;;;;;;-142.64;100.00;58178.75;5071089;28;20039;-57
2022/06/14 04:01:25;;;;;;;6.60;3.08;;;;;;;-142.64;100.00;58178.75;5072698;28;20067;-59
2022/06/14 04:04:07;;;;;;;5.43;3.38;;;;;;;-142.64;100.00;58178.75;5071319;28;20069;-59
2022/06/14 04:06:45;;;;;;;6.50;2.88;;;;;;;-142.64;100.00;58178.75;5072426;28;20033;-60
2022/06/14 04:09:43;;;;;;;5.85;3.42;;;;;;;-142.64;100.00;58178.75;5072730;28;20036;-59
2022/06/14 04:12:39;;;;;;;11.60;3.53;;;;;;;-142.64;100.00;58178.75;5071133;28;20048;-58
2022/06/14 04:15:19;;;;;;;7.78;3.25;;;;;;;-142.64;100.00;58178.75;5071122;28;20016;-58
2022/06/14 04:18:34;;;;;;;7.80;3.70;;;;;;;-142.64;100.00;58178.75;5071336;28;20028;-58
2022/06/14 04:21:00;;;;;;;7.20;3.40;;;;;;;-142.64;100.00;58178.75;5072042;28;20072;-59
2022/06/14 04:23:41;;;;;;;10.30;4.00;;;;;;;-142.64;100.00;58178.75;5071029;28;20032;-60
2022/06/14 04:26:24;;;;;;;6.57;3.25;;;;;;;-142.64;100.00;58178.75;5071273;28;20033;-59
2022/06/14 04:28:58;;;;;;;7.00;3.25;;;;;;;-142.64;100.00;58178.75;5070968;28;20035;-57
2022/06/14 04:31:42;;;;;;;6.60;3.67;;;;;;;-142.64;100.00;58178.75;5070810;28;20028;-59
2022/06/14 04:34:34;;;;;;;9.63;3.40;;;;;;;-142.64;100.00;58178.75;5054089;28;20024;-61
2022/06/14 04:37:05;;;;;;;5.38;3.45;;;;;;;-142.64;100.00;58178.75;5070963;28;20032;-60
2022/06/14 04:39:36;;;;;;;10.98;3.97;;;;;;;-142.64;100.00;58178.75;5070985;28;20432;-60
2022/06/14 04:42:15;;;;;;;9.15;4.28;;;;;;;-142.64;100.00;58178.75;5070896;28;20098;-61
2022/06/14 04:44:54;;;;;;;5.63;3.30;;;;;;;-142.64;100.00;58178.75;5075961;28;20529;-59
2022/06/14 04:47:24;;;;;;;6.22;3.88;;;;;;;-142.64;100.00;58178.75;5076376;28;20035;-58
2022/06/14 04:50:00;;;;;;;6.35;3.40;;;;;;;-142.64;100.00;58178.75;5074943;28;20081;-60
2022/06/14 04:52:36;;;;;;;6.88;3.28;;;;;;;-142.64;100.00;58178.75;5074791;28;20376;-58
2022/06/14 04:55:13;;;;;;;6.38;3.30;;;;;;;-142.64;100.00;58178.75;5075059;28;20016;-60
2022/06/14 04:57:53;;;;;;;6.43;3.70;;;;;;;-142.64;100.00;58178.75;5076108;28;20020;-60
2022/06/14 05:00:22;;;;;;;8.23;3.47;;;;;;;-142.64;100.00;58178.75;5074796;28;20025;-57
2022/06/14 05:03:07;;;;;;;7.07;3.78;;;;;;;-142.64;100.00;58178.75;5074745;28;20131;-59
2022/06/14 05:05:45;;;;;;;7.85;4.32;;;;;;;-142.64;100.00;58178.75;5074762;28;20032;-59
2022/06/14 05:08:25;;;;;;;8.10;3.78;;;;;;;-142.64;100.00;58178.75;5074751;28;20036;-57
2022/06/14 05:10:53;;;;;;;6.03;3.80;;;;;;;-142.64;100.00;58178.75;5074666;28;20032;-60
2022/06/14 05:13:30;;;;;;;6.57;3.63;;;;;;;-142.64;100.00;58178.75;5075417;28;20048;-60
2022/06/14 05:16:22;;;;;;;6.55;3.58;;;;;;;-142.64;100.00;58178.75;5075888;28;20036;-58
2022/06/14 05:19:00;;;;;;;7.45;3.40;;;;;;;-142.64;100.00;58178.75;5075628;28;20027;-60
2022/06/14 05:21:49;;;;;;;9.82;3.50;;;;;;;-142.64;100.00;58178.75;5074246;28;20032;-58
2022/06/14 05:24:15;;;;;;;6.40;3.35;;;;;;;-142.64;100.00;58178.75;5074285;28;20036;-59
2022/06/14 05:26:54;;;;;;;8.13;3.47;;;;;;;-142.64;100.00;58178.75;5075513;28;20055;-58
2022/06/14 05:29:27;;;;;;;7.15;2.65;;;;;;;-142.64;100.00;58178.75;5075431;28;20024;-59
2022/06/14 05:32:28;;;;;;;5.28;2.30;;;;;;;-142.64;100.00;58178.75;5073965;28;20116;-59
2022/06/14 05:35:19;;;;;;;7.05;2.95;;;;;;;-142.64;100.00;58178.75;5063270;28;20056;-60
2022/06/14 05:37:48;;;;;;;8.85;3.00;;;;;;;-142.64;100.00;58178.75;5074042;28;20040;-58
2022/06/14 05:40:37;;;;;;;5.45;2.60;;;;;;;-142.64;100.00;58178.75;5075119;28;20505;-58
2022/06/14 05:43:15;;;;;;;9.65;3.35;;;;;;;-142.64;100.00;58178.75;5075340;28;20110;-61
2022/06/14 05:45:44;;;;;;;6.60;2.65;;;;;;;-142.64;100.00;58178.75;5073985;28;20391;-59
2022/06/14 05:48:17;;;;;;;7.18;2.78;;;;;;;-142.64;100.00;58178.75;5075175;28;20032;-60
2022/06/14 05:50:45;;;;;;;3.60;2.80;;;;;;;-142.64;100.00;58178.75;5073545;28;20028;-58
2022/06/14 05:53:37;;;;;;;5.63;3.03;;;;;;;-142.64;100.00;58178.75;5073971;28;20037;-59
2022/06/14 05:56:26;;;;;;;6.35;2.15;;;;;;;-142.64;100.00;58178.75;5073987;28;20029;-59
2022/06/14 05:58:59;;;;;;;5.78;2.65;;;;;;;-142.64;100.00;58178.75;5073675;28;20429;-61
2022/06/14 06:01:33;;;;;;;5.03;2.25;;;;;;;-142.64;100.00;58178.75;5074776;28;20457;-60
2022/06/14 06:04:13;;;;;;;5.30;2.08;;;;;;;-142.64;100.00;58178.75;5073535;28;20530;-59
2022/06/14 06:06:48;;;;;;;3.45;1.65;;;;;;;-142.64;100.00;58178.75;5073357;28;20037;-60
2022/06/14 06:09:16;;;;;;;4.57;2.45;;;;;;;-142.64;100.00;58178.75;5074637;28;20483;-60
2022/06/14 06:11:52;;;;;;;4.95;2.20;;;;;;;-142.64;100.00;58178.75;5074116;28;20480;-59
2022/06/14 06:14:30;;;;;;;3.15;1.80;;;;;;;-142.64;100.00;58178.75;5074674;28;20029;-58
2022/06/14 06:19:31;;;;;;;6.43;2.63;;;;;;;-142.64;100.00;58178.75;5074554;28;20059;-58
2022/06/14 06:22:03;;;;;;;7.78;3.03;;;;;;;-142.64;100.00;58178.75;5072890;28;20120;-58
2022/06/14 06:24:32;;;;;;;27.63;8.05;;;;;;;-142.64;100.00;58178.75;5072795;28;20384;-61
2022/06/14 06:27:08;;;;;;;9.02;2.92;;;;;;;-142.64;100.00;58178.75;5074260;28;20472;-58
2022/06/14 06:29:42;;;;;;;17.15;4.78;;;;;;;-142.64;100.00;58178.75;5072347;28;20031;-57
2022/06/14 06:32:09;;;;;;;9.23;3.10;;;;;;;-142.64;100.00;58178.75;5071741;28;20036;-59
2022/06/14 06:34:34;;;;;;;6.18;2.13;;;;;;;-142.64;100.00;58178.75;5072687;28;20082;-58
2022/06/14 06:37:18;;;;;;;6.13;1.70;;;;;;;-142.64;100.00;58178.75;5072599;28;20472;-57
2022/06/14 06:39:55;;;;;;;2.80;1.25;;;;;;;-142.64;100.00;58178.75;5074090;28;20267;-59
2022/06/14 06:42:39;;;;;;;3.15;1.40;;;;;;;-142.64;100.00;58178.75;5074040;28;20064;-58
2022/06/14 06:45:24;;;;;;;4.40;1.58;;;;;;;-142.64;100.00;58178.75;5073925;28;20479;-59
2022/06/14 06:47:53;;;;;;;3.35;1.65;;;;;;;-142.64;100.00;58178.75;5072894;28;20058;-60
2022/06/14 06:50:34;;;;;;;7.63;2.40;;;;;;;-142.64;100.00;58178.75;5073888;28;20036;-60
2022/06/14 06:53:12;;;;;;;;;;;;;;;-142.64;100.00;58178.75;5072987;28;20551;-60
2022/06/14 06:55:37;;;;;;;4.68;1.63;;;;;;;-142.64;100.00;58178.75;5072415;28;19916;-55
2022/06/14 06:58:25;;;;;;;5.57;1.98;;;;;;;-142.64;100.00;58178.75;5074178;28;20127;-58
2022/06/14 07:00:56;;;;;;;4.30;1.45;;;;;;;-142.64;100.00;58178.75;5069364;28;20127;-58
2022/06/14 07:03:41;;;;;;;4.47;1.42;;;;;;;-142.64;100.00;58178.75;5073259;28;20543;-57
2022/06/14 07:06:13;;;;;;;3.67;1.20;;;;;;;-142.64;100.00;58178.75;5071415;28;20029;-60
2022/06/14 07:09:04;;;;;;;4.63;1.88;;;;;;;-142.64;100.00;58178.75;5072407;28;20051;-56
2022/06/14 07:11:35;;;;;;;2.75;1.38;;;;;;;-142.64;100.00;58178.75;5072761;28;20407;-57
2022/06/14 07:14:14;;;;;;;1.92;1.17;;;;;;;-142.64;100.00;58178.75;5072854;28;20037;-58
2022/06/14 07:16:45;;;;;;;4.63;1.30;;;;;;;-142.64;100.00;58178.75;5072281;28;20025;-58
2022/06/14 07:19:19;;;;;;;;;;;;;;;-142.64;100.00;58178.75;5072281;28;20102;-58
2022/06/14 07:22:10;;;;;;;4.40;1.50;;;;;;;-142.64;100.00;58178.75;5055401;28;19913;-59
2022/06/14 07:25:05;;;;;;;3.97;1.10;;;;;;;-142.64;100.00;58178.75;5072852;28;20119;-58
2022/06/14 07:27:35;;;;;;;4.72;1.48;;;;;;;-142.64;100.00;58178.75;5073011;28;20119;-58
2022/06/14 07:30:05;;;;;;;3.10;1.08;;;;;;;-142.64;100.00;58178.75;5071938;28;20024;-56
2022/06/14 07:32:34;;;;;;;2.47;1.15;;;;;;;-142.64;100.00;58178.75;5072866;28;20045;-58
2022/06/14 07:35:00;;;;;;;5.18;1.10;;;;;;;-142.64;100.00;58178.75;5071601;28;20035;-57
2022/06/14 07:37:38;;;;;;;5.43;1.23;;;;;;;-142.64;100.00;58178.75;5071682;28;20052;-56
2022/06/14 07:40:35;;;;;;;3.35;1.38;;;;;;;-142.64;100.00;58178.75;5072994;28;20406;-58
2022/06/14 07:43:03;;;;;;;2.15;1.60;;;;;;;-142.64;100.00;58178.75;5072736;28;20033;-59
2022/06/14 07:45:35;;;;;;;2.60;1.30;;;;;;;-142.64;100.00;58178.75;5073055;28;20031;-56
2022/06/14 07:48:12;;;;;;;2.80;1.30;;;;;;;-142.64;100.00;58178.75;5071837;28;20541;-58
2022/06/14 07:50:46;;;;;;;3.95;1.30;;;;;;;-142.64;100.00;58178.75;5072632;28;20028;-55
2022/06/14 07:53:28;;;;;;;3.97;1.50;;;;;;;-142.64;100.00;58178.75;5071525;28;20031;-53
2022/06/14 07:55:57;;;;;;;3.47;1.33;;;;;;;-142.64;100.00;58178.75;5071328;28;20069;-55
2022/06/14 07:58:26;;;;;;;3.40;1.10;;;;;;;-142.64;100.00;58178.75;5071508;28;20032;-57
2022/06/14 08:01:07;;;;;;;3.83;1.17;;;;;;;-142.64;100.00;58178.75;5069432;28;20032;-56
2022/06/14 08:03:38;;;;;;;6.70;1.70;;;;;;;-142.64;100.00;58178.75;5070900;28;20116;-56
2022/06/14 08:06:08;;;;;;;5.32;1.00;;;;;;;-142.64;100.00;58178.75;5069990;28;20043;-57
2022/06/14 08:08:36;;;;;;;5.57;1.45;;;;;;;-142.64;100.00;58178.75;5070904;28;20058;-59
2022/06/14 08:11:06;;;;;;;3.53;1.25;;;;;;;-142.64;100.00;58178.75;5071136;28;20117;-56
2022/06/14 08:13:39;;;;;;;6.20;1.17;;;;;;;-142.64;100.00;58178.75;5069571;28;20059;-57
2022/06/14 08:16:06;;;;;;;1.48;0.95;;;;;;;-142.64;100.00;58178.75;5069656;28;20047;-55
2022/06/14 08:18:41;;;;;;;5.10;1.85;;;;;;;-142.64;100.00;58178.75;5068682;28;20063;-57
2022/06/14 08:21:14;;;;;;;4.25;1.25;;;;;;;-142.64;100.00;58178.75;5069760;28;20037;-57
2022/06/14 08:23:44;;;;;;;6.15;1.60;;;;;;;-142.64;100.00;58178.75;5069718;28;20040;-55
2022/06/14 08:26:16;;;;;;;3.03;1.30;;;;;;;-142.64;100.00;58178.75;5070698;28;20098;-55
2022/06/14 08:28:59;;;;;;;3.30;1.13;;;;;;;-142.64;100.00;58178.75;5070657;28;20036;-56
2022/06/14 08:31:50;;;;;;;4.78;1.58;;;;;;;-142.64;100.00;58178.75;5070315;28;20416;-55
2022/06/14 08:34:45;;;;;;;2.53;1.10;;;;;;;-142.64;100.00;58178.75;5070250;28;20045;-56
2022/06/14 08:37:26;;;;;;;3.35;1.42;;;;;;;-142.64;100.00;58178.75;5071010;28;20033;-56
2022/06/14 08:39:58;;;;;;;2.55;1.27;;;;;;;-142.64;100.00;58178.75;5070635;28;20032;-57
2022/06/14 08:42:36;;;;;;;4.00;1.48;;;;;;;-142.64;100.00;58178.75;5069377;28;20119;-59
2022/06/14 08:45:15;;;;;;;4.05;1.50;;;;;;;-142.64;100.00;58178.75;5070538;28;20055;-55
2022/06/14 08:47:55;;;;;;;4.93;1.60;;;;;;;-142.64;100.00;58178.75;5070407;28;20128;-59
2022/06/14 08:50:34;;;;;;;2.63;1.30;;;;;;;-142.64;100.00;58178.75;5052752;28;20434;-56
2022/06/14 08:53:02;;;;;;;2.85;1.20;;;;;;;-142.64;100.00;58178.75;5070738;28;20039;-56
2022/06/14 08:55:49;;;;;;;2.72;1.45;;;;;;;-142.64;100.00;58178.75;5070448;28;20053;-56
2022/06/14 08:58:24;;;;;;;3.42;1.42;;;;;;;-142.64;100.00;58178.75;5070348;28;20073;-57
2022/06/14 09:00:50;;;;;;;6.93;1.90;;;;;;;-142.64;100.00;58178.75;5070614;28;20029;-56
2022/06/14 09:03:31;;;;;;;4.70;1.80;;;;;;;-142.64;100.00;58178.75;5070442;28;20391;-57
2022/06/14 09:06:18;;;;;;;3.25;1.40;;;;;;;-142.64;100.00;58178.75;5070118;28;20846;-58
2022/06/14 09:09:10;;;;;;;3.20;1.70;;;;;;;-142.64;100.00;58178.75;5069163;28;20033;-55
2022/06/14 09:12:02;;;;;;;7.28;2.00;;;;;;;-142.64;100.00;58178.75;5069032;28;20372;-54
2022/06/14 09:14:48;;;;;;;2.83;1.75;;;;;;;-142.64;100.00;58178.75;5070371;28;20033;-56
2022/06/14 09:17:16;;;;;;;4.30;1.38;;;;;;;-142.64;100.00;58178.75;5070082;28;20117;-58
2022/06/14 09:20:00;;;;;;;5.55;1.90;;;;;;;-142.64;100.00;58178.75;5070701;28;20047;-55
2022/06/14 09:22:37;;;;;;;3.63;1.67;;;;;;;-142.64;100.00;58178.75;5070297;28;20041;-55
2022/06/14 09:25:13;;;;;;;2.42;1.73;;;;;;;-142.64;100.00;58178.75;5068818;28;20488;-56
2022/06/14 09:28:04;;;;;;;3.38;1.60;;;;;;;-142.64;100.00;58178.75;5069752;28;20431;-56
2022/06/14 09:30:35;;;;;;;2.47;1.75;;;;;;;-142.64;100.00;58178.75;5062806;28;20052;-54
2022/06/14 09:33:26;;;;;;;3.55;1.80;;;;;;;-142.64;100.00;58178.75;5073795;28;20040;-55
2022/06/14 09:36:24;;;;;;;3.22;1.92;;;;;;;-142.64;100.00;58178.75;5072432;28;20043;-54
2022/06/14 09:38:59;;;;;;;2.13;1.48;;;;;;;-142.64;100.00;58178.75;5072743;28;20036;-57
2022/06/14 09:42:01;;;;;;;3.75;1.77;;;;;;;-142.64;100.00;58178.75;5073760;28;20036;-53
2022/06/14 09:44:42;;;;;;;3.50;1.60;;;;;;;-142.64;100.00;58178.75;5072552;28;20032;-56
2022/06/14 09:47:41;;;;;;;2.53;1.73;;;;;;;-142.64;100.00;58178.75;5073332;28;20550;-58
2022/06/14 09:50:31;;;;;;;3.75;1.80;;;;;;;-142.64;100.00;58178.75;5072334;28;20074;-52
2022/06/14 09:53:05;;;;;;;2.67;2.13;;;;;;;-142.64;100.00;58178.75;5072181;28;20506;-56
2022/06/14 09:56:07;;;;;;;4.25;2.05;;;;;;;-142.64;100.00;58178.75;5072037;28;20036;-56
2022/06/14 09:58:59;;;;;;;4.03;2.00;;;;;;;-142.64;100.00;58178.75;5071026;28;20044;-56
2022/06/14 10:01:57;;;;;;;1.95;1.60;;;;;;;-142.64;100.00;58178.75;5073344;28;20028;-52
2022/06/14 10:04:27;;;;;;;4.38;2.05;;;;;;;-142.64;100.00;58178.75;5072092;28;20055;-56
2022/06/14 10:07:07;;;;;;;3.97;1.80;;;;;;;-142.64;100.00;58178.75;5073360;28;20436;-52
2022/06/14 10:10:00;;;;;;;3.50;2.15;;;;;;;-142.64;100.00;58178.75;5072115;28;20490;-55
2022/06/14 10:12:47;;;;;;;2.50;1.73;;;;;;;-142.64;100.00;58178.75;5071785;28;20105;-54
2022/06/14 10:15:21;;;;;;;3.30;1.80;;;;;;;-142.64;100.00;58178.75;5073089;28;20037;-55
2022/06/14 10:18:02;;;;;;;3.45;2.30;;;;;;;-142.64;100.00;58178.75;5073239;28;20037;-57
2022/06/14 10:21:05;;;;;;;3.45;2.08;;;;;;;-142.64;100.00;58178.75;5072888;28;20035;-58
2022/06/14 10:23:55;;;;;;;3.53;2.25;;;;;;;-142.64;100.00;58178.75;5050155;28;20495;-55
2022/06/14 10:30:06;;;;;;;6.07;2.30;;;;;;;-142.64;100.00;58178.75;5071335;28;20435;-56
2022/06/14 10:32:56;;;;;;;4.07;2.15;;;;;;;-142.64;100.00;58178.75;5071144;28;20048;-55
2022/06/14 10:35:46;;;;;;;3.80;2.07;;;;;;;-142.64;100.00;58178.75;5072646;28;20452;-57
2022/06/14 10:38:28;;;;;;;3.92;2.10;;;;;;;-142.64;100.00;58178.75;5072501;28;20262;-55
2022/06/14 10:41:15;;;;;;;3.85;1.80;;;;;;;-142.64;100.00;58178.75;5071867;28;20050;-57
2022/06/14 10:43:52;;;;;;;4.75;2.35;;;;;;;-142.64;100.00;58178.75;5071286;28;20029;-56
2022/06/14 10:46:24;;;;;;;3.40;1.80;;;;;;;-142.64;100.00;58178.75;5072582;28;20055;-58
2022/06/14 10:49:21;;;;;;;3.97;2.25;;;;;;;-142.64;100.00;58178.75;5071092;28;20051;-57
2022/06/14 10:52:20;;;;;;;3.67;2.00;;;;;;;-142.64;100.00;58178.75;5072127;28;20495;-57
2022/06/14 10:55:27;;;;;;;3.28;2.05;;;;;;;-142.64;100.00;58178.75;5071913;28;20070;-58
2022/06/14 10:58:19;;;;;;;4.65;2.30;;;;;;;-142.64;100.00;58178.75;5071020;28;20040;-56
2022/06/14 11:00:58;;;;;;;4.10;2.30;;;;;;;-142.64;100.00;58178.75;5061234;28;20041;-56
2022/06/14 11:04:17;;;;;;;3.17;2.30;;;;;;;-142.64;100.00;58178.75;5071635;28;20025;-56
2022/06/14 11:06:42;;;;;;;4.00;2.13;;;;;;;-142.64;100.00;58178.75;5049473;28;20403;-55
2022/06/14 11:09:20;;;;;;;3.77;2.00;;;;;;;-142.64;100.00;58178.75;5069821;28;20040;-55
2022/06/14 11:11:54;;;;;;;2.83;1.77;;;;;;;-142.64;100.00;58178.75;5060835;28;20315;-51
2022/06/14 11:14:23;;;;;;;3.22;1.90;;;;;;;-142.64;100.00;58178.75;5045854;28;20495;-53
2022/06/14 11:17:40;;;;;;;2.95;2.10;;;;;;;-142.64;100.00;58178.75;5049184;28;20055;-50
2022/06/14 11:20:22;;;;;;;3.20;2.08;;;;;;;-142.64;100.00;58178.75;5024799;28;20041;-51
2022/06/14 11:22:56;;;;;;;4.13;2.47;;;;;;;-142.64;100.00;58178.75;5051987;28;20033;-52
2022/06/14 11:25:42;;;;;;;3.25;2.47;;;;;;;-142.64;100.00;58178.75;5050677;28;20425;-55
2022/06/14 11:28:20;;;;;;;3.42;2.10;;;;;;;-142.64;100.00;58178.75;5051682;28;20041;-52
2022/06/14 11:31:16;;;;;;;4.85;1.83;;;;;;;-142.64;100.00;58178.75;5050476;28;20025;-54
2022/06/14 11:33:59;;;;;;;2.95;2.08;;;;;;;-142.64;100.00;58178.75;5051684;28;20420;-56
2022/06/14 11:36:44;;;;;;;2.97;1.95;;;;;;;-142.64;100.00;58178.75;5051427;28;20571;-54
2022/06/14 11:40:08;;;;;;;4.07;2.30;;;;;;;-142.64;100.00;58178.75;5050452;28;20033;-53
2022/06/14 11:43:17;;;;;;;3.83;2.00;;;;;;;-142.64;100.00;58178.75;5028393;28;20050;-52
2022/06/14 11:46:14;;;;;;;6.47;1.70;;;;;;;-142.64;100.00;58178.75;4998930;28;20598;-54
2022/06/14 11:49:09;;;;;;;2.80;1.92;;;;;;;-142.64;100.00;58178.75;5051172;28;20033;-54
2022/06/14 11:52:18;;;;;;;2.63;1.95;;;;;;;-142.64;100.00;58178.75;5050005;28;20087;-53
2022/06/14 11:55:02;;;;;;;9.25;3.00;;;;;;;-142.64;100.00;58178.75;5048458;28;20041;-52
2022/06/14 11:57:39;;;;;;;3.90;2.28;;;;;;;-142.64;100.00;58178.75;5051152;28;20319;-56
2022/06/14 12:00:32;;;;;;;2.72;2.20;;;;;;;-142.64;100.00;58178.75;5051161;28;20043;-54
2022/06/14 12:03:09;;;;;;;5.65;2.25;;;;;;;-142.64;100.00;58178.75;5049364;28;20362;-52
2022/06/14 12:05:42;;;;;;;5.18;2.30;;;;;;;-142.64;100.00;58178.75;5050881;28;20150;-58
2022/06/14 12:08:37;;;;;;;3.25;2.33;;;;;;;-142.64;100.00;58178.75;5049428;28;20024;-55
2022/06/14 12:11:03;;;;;;;5.82;2.13;;;;;;;-142.64;100.00;58178.75;5049668;28;20033;-52
2022/06/14 12:13:38;;;;;;;5.32;2.22;;;;;;;-142.64;100.00;58178.75;5049965;28;20466;-50